Time;durP1;ratioP1;P1;durP2;ratioP2;P2;SDS_P1;SDS_P2;PMS_P1;PMS_P2;Temp;Humidity;BMP_temperature;BMP_pressure;BME280_temperature;BME280_humidity;BME280_pressure;Samples;Min_cycle;Max_cycle;Signal;HPM_P1;HPM_P2
2024/01/06 00:02:21;;;;;;;5.78;4.00;;;;;;;19.68;53.39;95638.28;20882585;28;20057;-55
2024/01/06 00:12:40;;;;;;;5.75;4.03;;;;;;;19.65;53.46;95628.97;20930266;28;20056;-54
2024/01/06 00:23:00;;;;;;;7.30;4.32;;;;;;;19.63;53.40;95625.06;20910914;28;20560;-54
2024/01/06 00:33:20;;;;;;;5.18;3.55;;;;;;;19.60;53.29;95641.97;20917707;28;20045;-54
2024/01/06 00:43:40;;;;;;;5.85;3.72;;;;;;;19.55;53.16;95645.72;20917286;28;20049;-55
2024/01/06 00:53:59;;;;;;;4.43;3.60;;;;;;;19.54;53.14;95650.34;20916185;28;20060;-57
2024/01/06 01:04:19;;;;;;;4.43;3.85;;;;;;;19.51;53.05;95644.88;20914802;28;20053;-57
2024/01/06 01:14:38;;;;;;;5.93;3.80;;;;;;;19.47;53.09;95658.28;20914000;28;20048;-54
2024/01/06 01:24:57;;;;;;;5.13;3.65;;;;;;;19.47;53.03;95663.69;20913424;28;20507;-53
2024/01/06 01:35:17;;;;;;;4.32;3.60;;;;;;;19.42;52.96;95658.53;20912144;28;20048;-54
2024/01/06 01:45:36;;;;;;;5.10;4.00;;;;;;;19.38;52.98;95656.91;20911648;28;20053;-53
2024/01/06 01:55:57;;;;;;;4.88;3.97;;;;;;;19.27;52.94;95667.47;20908873;28;20045;-54
2024/01/06 02:06:17;;;;;;;5.53;3.90;;;;;;;19.28;53.07;95661.69;20909937;28;20048;-53
2024/01/06 02:16:36;;;;;;;5.15;3.58;;;;;;;19.26;52.69;95672.06;20908643;28;20103;-54
2024/01/06 02:26:55;;;;;;;4.30;3.70;;;;;;;19.22;53.13;95668.50;20919671;28;20452;-54
2024/01/06 02:37:15;;;;;;;4.22;3.75;;;;;;;19.21;52.90;95666.13;20909332;28;20041;-54
2024/01/06 02:47:35;;;;;;;4.68;3.70;;;;;;;19.16;53.00;95664.50;20907980;28;20084;-54
2024/01/06 02:57:54;;;;;;;4.13;3.70;;;;;;;19.12;52.98;95666.31;20921583;28;20045;-54
2024/01/06 03:08:14;;;;;;;4.35;3.60;;;;;;;19.09;53.06;95664.31;20903577;28;20049;-54
2024/01/06 03:18:34;;;;;;;3.83;3.17;;;;;;;19.05;53.12;95653.44;20931579;28;20071;-54
2024/01/06 03:28:54;;;;;;;4.00;3.58;;;;;;;19.03;53.07;95652.22;20904928;28;20052;-54
2024/01/06 03:39:14;;;;;;;4.00;3.55;;;;;;;18.99;53.00;95657.53;20904675;28;20056;-54
2024/01/06 03:49:33;;;;;;;3.78;3.20;;;;;;;18.98;53.13;95655.97;20904725;28;20052;-54
2024/01/06 03:59:53;;;;;;;3.88;3.30;;;;;;;18.94;53.05;95647.00;20913977;28;20049;-54
2024/01/06 04:10:12;;;;;;;3.88;3.50;;;;;;;18.91;52.90;95642.28;20920084;28;20369;-54
2024/01/06 04:20:32;;;;;;;4.95;3.40;;;;;;;18.87;52.97;95636.78;20917021;28;20056;-54
2024/01/06 04:30:52;;;;;;;3.95;3.00;;;;;;;18.87;53.14;95646.81;20918766;28;20680;-54
2024/01/06 04:41:11;;;;;;;3.53;3.00;;;;;;;18.85;52.83;95651.78;20918163;28;20048;-55
2024/01/06 04:51:32;;;;;;;4.50;3.00;;;;;;;18.81;52.98;95656.28;20901674;28;20653;-54
2024/01/06 05:01:53;;;;;;;3.03;2.80;;;;;;;18.78;52.89;95655.06;20914183;28;20056;-54
2024/01/06 05:12:12;;;;;;;3.20;2.90;;;;;;;18.76;52.89;95655.41;20850734;28;20049;-54
2024/01/06 05:22:31;;;;;;;4.05;2.90;;;;;;;18.74;52.98;95668.44;20857171;28;20048;-54
2024/01/06 05:32:51;;;;;;;3.35;3.05;;;;;;;18.72;53.06;95676.09;20918795;28;20052;-54
2024/01/06 05:43:10;;;;;;;3.50;3.00;;;;;;;18.69;52.94;95684.88;20890098;28;20441;-54
2024/01/06 05:53:29;;;;;;;3.28;2.95;;;;;;;18.68;52.94;95696.81;20850710;28;20064;-54
2024/01/06 06:03:50;;;;;;;2.90;2.70;;;;;;;18.68;52.80;95702.22;20900058;28;20057;-54
2024/01/06 06:14:09;;;;;;;3.10;2.80;;;;;;;18.64;52.98;95714.81;20910901;28;20057;-54
2024/01/06 06:24:29;;;;;;;3.22;2.55;;;;;;;18.63;52.96;95732.13;20976365;28;20052;-54
2024/01/06 06:34:48;;;;;;;2.67;2.47;;;;;;;18.62;52.86;95749.44;20947173;28;20045;-54
2024/01/06 06:45:10;;;;;;;2.50;2.30;;;;;;;18.58;52.81;95746.66;20940368;28;20049;-54
2024/01/06 06:55:30;;;;;;;2.92;2.38;;;;;;;18.57;52.83;95771.25;20915436;28;20048;-57
2024/01/06 07:05:50;;;;;;;2.85;2.53;;;;;;;18.62;52.99;95781.81;20901249;28;20612;-57
2024/01/06 07:16:11;;;;;;;2.80;2.60;;;;;;;18.65;52.96;95796.53;20900537;28;20053;-58
2024/01/06 07:26:30;;;;;;;3.47;2.30;;;;;;;18.70;53.17;95799.78;20900951;28;20463;-57
2024/01/06 07:36:50;;;;;;;2.78;2.50;;;;;;;18.77;52.92;95812.66;20899386;28;20045;-57
2024/01/06 07:47:09;;;;;;;3.90;2.47;;;;;;;18.77;52.93;95818.84;20897761;28;20060;-57
2024/01/06 07:57:29;;;;;;;2.63;2.30;;;;;;;18.84;52.42;95822.91;20897556;28;20060;-53
2024/01/06 08:07:51;;;;;;;4.10;2.38;;;;;;;18.93;52.35;95837.84;20898182;28;20469;-53
2024/01/06 08:18:11;;;;;;;5.25;2.45;;;;;;;19.05;53.09;95841.59;20862918;28;20045;-54
2024/01/06 08:28:30;;;;;;;7.72;2.40;;;;;;;19.12;53.89;95845.28;20874120;28;20098;-54
2024/01/06 08:38:51;;;;;;;7.95;2.75;;;;;;;19.22;54.32;95856.72;20893777;28;20064;-54
2024/01/06 08:49:10;;;;;;;6.72;2.75;;;;;;;19.30;54.44;95861.19;20936505;28;20048;-54
2024/01/06 08:59:31;;;;;;;7.82;3.40;;;;;;;19.42;54.34;95863.81;20953562;28;20049;-53
2024/01/06 09:09:51;;;;;;;6.82;3.47;;;;;;;19.53;54.43;95870.28;20985470;28;20118;-58
2024/01/06 09:20:11;;;;;;;6.38;3.20;;;;;;;19.68;56.81;95881.44;20939193;28;20052;-60
2024/01/06 09:30:30;;;;;;;6.00;3.38;;;;;;;19.71;55.82;95886.19;20905594;28;20049;-55
2024/01/06 09:40:50;;;;;;;12.38;6.30;;;;;;;19.82;58.17;95897.31;20919278;28;20064;-56
2024/01/06 09:51:11;;;;;;;9.30;3.80;;;;;;;19.95;55.66;95890.66;20966826;28;20048;-58
2024/01/06 10:01:30;;;;;;;15.30;11.93;;;;;;;19.88;48.89;95899.38;20950696;28;20053;-56
2024/01/06 10:11:50;;;;;;;19.70;9.65;;;;;;;19.94;56.60;95895.28;20927359;28;20757;-57
2024/01/06 10:22:10;;;;;;;13.77;8.15;;;;;;;20.03;53.17;95881.63;20902337;28;20049;-54
2024/01/06 10:32:33;;;;;;;10.60;7.95;;;;;;;20.06;51.29;95883.59;20892350;28;20094;-54
2024/01/06 10:42:53;;;;;;;12.45;8.77;;;;;;;20.13;51.24;95874.88;20906367;28;20044;-53
2024/01/06 10:53:13;;;;;;;20.85;10.27;;;;;;;20.22;54.03;95880.13;20906492;28;20480;-56
2024/01/06 11:03:32;;;;;;;13.65;9.25;;;;;;;20.25;56.71;95877.50;20903450;28;20079;-53
2024/01/06 11:14:24;;;;;;;18.15;10.52;;;;;;;20.35;56.70;95870.78;20934016;28;20052;-53
2024/01/06 11:24:48;;;;;;;25.63;17.55;;;;;;;20.40;50.28;95867.78;20912693;28;20649;-56
2024/01/06 11:35:10;;;;;;;21.65;13.50;;;;;;;20.31;52.92;95867.19;20893893;28;21738;-55
2024/01/06 11:45:30;;;;;;;17.23;13.38;;;;;;;20.41;51.97;95855.06;20934406;28;20549;-54
2024/01/06 11:55:50;;;;;;;21.27;13.50;;;;;;;20.43;52.16;95852.78;20932344;28;20057;-55
2024/01/06 12:06:09;;;;;;;19.17;13.10;;;;;;;20.38;51.86;95858.44;20905345;28;20045;-55
2024/01/06 12:16:30;;;;;;;34.90;26.27;;;;;;;20.12;40.17;95857.09;20930762;28;20053;-55
2024/01/06 12:26:51;;;;;;;33.58;28.88;;;;;;;19.40;37.46;95870.69;20925310;28;20079;-56
2024/01/06 12:37:13;;;;;;;25.58;20.17;;;;;;;19.71;40.61;95878.06;20909696;28;20055;-56
2024/01/06 12:47:33;;;;;;;23.02;17.63;;;;;;;20.03;41.58;95876.22;20909577;28;20048;-56
2024/01/06 12:57:53;;;;;;;20.80;15.93;;;;;;;20.15;42.64;95878.03;20911025;28;20060;-58
2024/01/06 13:08:13;;;;;;;18.00;15.68;;;;;;;20.26;43.11;95873.66;20896437;28;20405;-56
2024/01/06 13:18:33;;;;;;;16.42;14.68;;;;;;;20.30;43.52;95876.44;20910258;28;20525;-57
2024/01/06 13:28:53;;;;;;;16.85;14.90;;;;;;;20.35;43.96;95885.06;20894563;28;20171;-57
2024/01/06 13:39:20;;;;;;;17.67;14.57;;;;;;;20.40;44.04;95888.63;20908479;28;20048;-55
2024/01/06 13:49:42;;;;;;;19.33;14.63;;;;;;;20.44;44.20;95889.50;20905902;28;20059;-54
2024/01/06 14:00:04;;;;;;;16.38;13.05;;;;;;;20.51;44.74;95900.50;20906148;28;20413;-53
2024/01/06 14:10:31;;;;;;;14.73;12.63;;;;;;;20.51;45.15;95905.91;20904435;28;20053;-54
2024/01/06 14:20:51;;;;;;;14.80;13.07;;;;;;;20.52;45.62;95910.97;20904010;28;20103;-54
2024/01/06 14:31:11;;;;;;;15.98;12.82;;;;;;;20.55;45.86;95906.78;20890914;28;20601;-54
2024/01/06 14:41:30;;;;;;;14.38;11.85;;;;;;;20.58;46.02;95913.41;20903025;28;20056;-55
2024/01/06 14:51:49;;;;;;;13.68;11.30;;;;;;;20.59;46.24;95913.06;20903545;28;20056;-54
2024/01/06 15:02:09;;;;;;;15.02;12.27;;;;;;;20.76;47.99;95921.94;20898394;28;20068;-55
2024/01/06 15:12:28;;;;;;;15.52;13.55;;;;;;;20.83;51.90;95932.94;20900266;28;20048;-55
2024/01/06 15:22:48;;;;;;;28.20;15.93;;;;;;;20.92;54.48;95945.13;20894980;28;20111;-55
2024/01/06 15:33:07;;;;;;;22.85;14.93;;;;;;;21.01;55.37;95950.38;20899202;28;20045;-53
2024/01/06 15:43:26;;;;;;;22.95;13.25;;;;;;;21.00;53.95;95942.59;20917427;28;20067;-52
2024/01/06 15:53:46;;;;;;;22.52;12.68;;;;;;;20.99;52.74;95938.28;20906152;28;20111;-51
2024/01/06 16:04:05;;;;;;;21.42;11.85;;;;;;;20.93;51.33;95941.31;20915235;28;20502;-57
2024/01/06 16:14:27;;;;;;;14.38;10.60;;;;;;;20.89;50.61;95947.75;20913775;28;20056;-58
2024/01/06 16:24:47;;;;;;;15.63;10.50;;;;;;;20.83;50.14;95949.16;20885472;28;20049;-58
2024/01/06 16:35:06;;;;;;;18.25;14.88;;;;;;;20.77;43.81;95945.16;20939390;28;20037;-58
2024/01/06 16:45:27;;;;;;;15.35;10.50;;;;;;;20.76;47.75;95949.00;20898411;28;20049;-59
2024/01/06 16:55:46;;;;;;;13.45;10.75;;;;;;;20.72;46.91;95951.66;20944183;28;20063;-56
2024/01/06 17:06:06;;;;;;;11.93;10.57;;;;;;;20.76;47.73;95949.81;20958666;28;20036;-56
2024/01/06 17:16:26;;;;;;;12.45;9.35;;;;;;;20.75;48.03;95942.81;20932237;28;20441;-57
2024/01/06 17:26:46;;;;;;;11.45;9.38;;;;;;;20.74;48.36;95968.31;20909936;28;20079;-57
2024/01/06 17:37:05;;;;;;;11.40;9.10;;;;;;;20.74;48.65;95981.84;20919487;28;20515;-56
2024/01/06 17:47:25;;;;;;;10.02;8.80;;;;;;;20.69;48.79;95985.59;20915508;28;20049;-56
2024/01/06 17:57:45;;;;;;;9.55;8.63;;;;;;;20.64;48.89;95985.88;20916464;28;20049;-56
2024/01/06 18:08:04;;;;;;;9.45;8.10;;;;;;;20.63;49.15;95992.41;20918351;28;20053;-61
2024/01/06 18:18:25;;;;;;;10.35;8.52;;;;;;;20.62;49.20;95998.97;20882846;28;20100;-59
2024/01/06 18:28:44;;;;;;;9.00;8.00;;;;;;;20.59;49.37;95998.88;20883254;28;20048;-51
2024/01/06 18:39:04;;;;;;;8.93;7.80;;;;;;;20.52;49.27;96007.56;20929993;28;20045;-54
2024/01/06 18:49:24;;;;;;;10.18;7.97;;;;;;;20.46;49.60;96017.88;20928315;28;20505;-53
2024/01/06 18:59:44;;;;;;;9.52;7.72;;;;;;;20.45;49.19;96027.13;20925887;28;20140;-53
2024/01/06 19:10:04;;;;;;;8.27;7.47;;;;;;;20.37;49.70;96025.38;20917188;28;20785;-53
2024/01/06 19:20:24;;;;;;;9.32;7.72;;;;;;;20.35;49.73;96041.97;20936017;28;20461;-52
2024/01/06 19:30:44;;;;;;;11.27;7.60;;;;;;;20.37;50.00;96048.97;20888890;28;20102;-54
2024/01/06 19:41:03;;;;;;;11.85;7.68;;;;;;;20.35;50.19;96055.50;20895009;28;20053;-57
2024/01/06 19:51:24;;;;;;;8.73;6.97;;;;;;;20.29;50.23;96045.28;20887719;28;20076;-55
2024/01/06 20:01:43;;;;;;;7.78;6.70;;;;;;;20.27;50.33;96044.84;20901894;28;20417;-57
2024/01/06 20:12:03;;;;;;;7.78;6.97;;;;;;;20.22;50.35;96048.56;20892279;28;20045;-57
2024/01/06 20:22:23;;;;;;;7.95;6.85;;;;;;;20.20;50.50;96044.66;20889721;28;20084;-57
2024/01/06 20:32:43;;;;;;;9.90;6.90;;;;;;;20.14;50.70;96047.59;20890806;28;20049;-58
2024/01/06 20:43:02;;;;;;;8.80;6.47;;;;;;;20.07;50.82;96054.72;20910578;28;20052;-55
2024/01/06 20:53:22;;;;;;;7.50;6.70;;;;;;;20.02;51.34;96047.66;20921075;28;20045;-53
2024/01/06 21:03:42;;;;;;;9.73;6.88;;;;;;;19.99;51.81;96044.84;20912333;28;20049;-55
2024/01/06 21:14:02;;;;;;;12.00;7.40;;;;;;;19.99;51.55;96052.97;20912690;28;20057;-54
2024/01/06 21:24:24;;;;;;;9.02;7.72;;;;;;;19.94;51.26;96040.50;20908967;28;20044;-52
2024/01/06 21:34:44;;;;;;;9.68;7.43;;;;;;;19.90;50.83;96051.19;20930733;28;20436;-55
2024/01/06 21:45:04;;;;;;;8.80;7.07;;;;;;;19.94;50.74;96046.69;20901871;28;20048;-54
2024/01/06 21:55:24;;;;;;;9.02;6.57;;;;;;;19.87;50.67;96038.34;20898586;28;20445;-58
2024/01/06 22:05:44;;;;;;;8.77;7.20;;;;;;;19.79;51.21;96060.16;20897223;28;20049;-59
2024/01/06 22:16:04;;;;;;;9.10;7.07;;;;;;;19.69;51.37;96064.09;20917879;28;20037;-61
2024/01/06 22:26:23;;;;;;;8.20;6.80;;;;;;;19.70;51.21;96076.47;20907257;28;20053;-58
2024/01/06 22:36:46;;;;;;;7.75;6.60;;;;;;;19.65;51.19;96084.81;20920804;28;20056;-58
2024/01/06 22:47:06;;;;;;;7.53;6.72;;;;;;;19.60;51.33;96074.22;20925161;28;20064;-58
2024/01/06 22:57:26;;;;;;;8.88;6.65;;;;;;;19.53;51.85;96066.72;20898003;28;20045;-56
2024/01/06 23:07:45;;;;;;;9.18;6.25;;;;;;;19.49;52.21;96088.22;20897704;28;20049;-55
2024/01/06 23:18:05;;;;;;;9.85;6.57;;;;;;;19.46;52.33;96086.19;20892738;28;20511;-55
2024/01/06 23:28:25;;;;;;;8.27;6.75;;;;;;;19.42;52.50;96095.31;20895171;28;20049;-55
2024/01/06 23:38:44;;;;;;;8.30;6.32;;;;;;;19.38;52.42;96106.00;20896276;28;20052;-55
2024/01/06 23:49:04;;;;;;;7.40;6.05;;;;;;;19.33;52.54;96103.56;20893484;28;20053;-54
2024/01/06 23:59:23;;;;;;;9.48;6.03;;;;;;;19.30;52.45;96115.81;20894650;28;20049;-55
